METAR stanice u blizini

 

LYBE - Beograd / Surčin, Srbija
Ažurirano: 18/07/2024 10:30
Vedro
Vedro
 Pravac vetra varies
Vetar: varies 11 km/h
Temperatura: 28°C
Heat Index: 29°C
Tačka rose: 20°C
Vlažnost: 62%
Pritisak: 1018 hPa
Pregled: Vedro
Vidljivost: greater than 10 km
2024/07/18 08:30 LYBE 180830Z VRB06KT CAVOK 28/20 Q1018 NOSIG
LYBT - Beograd / Batajnica, Srbija
Ažurirano: 18/07/2024 10:30
Vedro
Vedro
 Pravac vetra SZ
Vetar: SZ 9 km/h
Temperatura: 30°C
Heat Index: 33°C
Tačka rose: 22°C
Vlažnost: 62%
Pritisak: 1018 hPa
Pregled: Vedro
Vidljivost: greater than 10 km
2024/07/18 08:30 LYBT 180830Z 32005KT 280V050 CAVOK 30/22 Q1018 NOSIG
LYVR - Vršac, Srbija
Ažurirano: 18/07/2024 10:30
Few Clouds
Few Clouds
 Pravac vetra ZSZ
Vetar: ZSZ 11 km/h
Temperatura: 30°C
Heat Index: 32°C
Tačka rose: 20°C
Vlažnost: 55%
Pritisak: 1017 hPa
Oblaci: Few Clouds
Vidljivost: 10 km
Cloud details: Few Clouds 1097 m
2024/07/18 08:30 LYVR 180830Z 29006KT 240V330 9999 FEW036 30/20 Q1017 NOSIG
 
LYKV - Lađevci, Srbija
Ažurirano: 18/07/2024 10:30
Partly Cloudy
Partly Cloudy
 Pravac vetra varies
Vetar: varies 6 km/h
Temperatura: 29°C
Heat Index: 31°C
Tačka rose: 21°C
Vlažnost: 62%
Pritisak: 1018 hPa
Oblaci: Partly Cloudy
Vidljivost: 10 km
Cloud details: Partly Cloudy 1433 m
2024/07/18 08:30 LYKV 180830Z VRB03KT 9999 SCT047 29/21 Q1018 NOSIG
LYNI - Niš, Srbija
Ažurirano: 18/07/2024 10:30
Vedro
Vedro
 Pravac vetra SSZ
Vetar: SSZ 19 km/h
Temperatura: 33°C
Heat Index: 35°C
Tačka rose: 20°C
Vlažnost: 46%
Pritisak: 1017 hPa
Pregled: Vedro
Vidljivost: greater than 10 km
2024/07/18 08:30 LYNI 180830Z 33010KT 280V010 CAVOK 33/20 Q1017 NOSIG
BKPR - Priština, Srbija
Ažurirano: 18/07/2024 11:00
Vedro
Vedro
 Pravac vetra SSI
Vetar: SSI 17 km/h
Temperatura: 32°C
Heat Index: 34°C
Tačka rose: 19°C
Vlažnost: 46%
Pritisak: 1019 hPa
Pregled: Vedro
Vidljivost: greater than 10 km
2024/07/18 09:00 BKPR 180900Z 02009KT CAVOK 32/19 Q1019 NOSIG
 
LHPP - Pecs / Pogany, Hungary
Ažurirano: 18/07/2024 10:15
Vedro
Vedro
 Pravac vetra varies
Vetar: varies 7 km/h
Temperatura: 28°C
Heat Index: 29°C
Tačka rose: 18°C
Vlažnost: 55%
Pritisak: 1020 hPa
Pregled: Vedro
Vidljivost: greater than 10 km
2024/07/18 08:15 LHPP 180815Z AUTO VRB04KT CAVOK 28/18 Q1020
LHUD - Szeged, Hungary
Ažurirano: 04/07/2019 01:45
NOT Current
Vedro
Vedro
 Pravac vetra S
Vetar: S 7 km/h
Temperatura: 18°C
Tačka rose: 13°C
Vlažnost: 73%
Pritisak: 1019 hPa
Pregled: Vedro
Vidljivost: greater than 10 km
2019/07/03 23:45 LHUD 032345Z 35004KT CAVOK 18/13 Q1019
LRTR - Timisoara, Romania
Ažurirano: 18/07/2024 10:30
Few Clouds
Few Clouds
 Pravac vetra SI
Vetar: SI 7 km/h
Temperatura: 28°C
Heat Index: 29°C
Tačka rose: 18°C
Vlažnost: 55%
Pritisak: 1018 hPa
Oblaci: Few Clouds
Vidljivost: 10 km
Cloud details: Few Clouds 1067 m
2024/07/18 08:30 LRTR 180830Z 04004KT 350V080 9999 FEW035 28/18 Q1018 NOSIG
 
LRCV - Craiova, Romania
Ažurirano: 18/07/2024 10:30
Vedro
Vedro
 Pravac vetra I
Vetar: I 11 km/h
Temperatura: 33°C
Tačka rose: 16°C
Vlažnost: 36%
Pritisak: 1016 hPa
Pregled: Vedro
Vidljivost: greater than 10 km
2024/07/18 08:30 LRCV 180830Z 08006KT 040V110 CAVOK 33/16 Q1016
LBSF - Sofia, Bulgaria
Ažurirano: 18/07/2024 11:00
Vedro
Vedro
 Pravac vetra varies
Vetar: varies 7 km/h
Temperatura: 33°C
Tačka rose: 14°C
Vlažnost: 32%
Pritisak: 1018 hPa
Pregled: Vedro
Vidljivost: greater than 10 km
2024/07/18 09:00 LBSF 180900Z VRB04KT CAVOK 33/14 Q1018 NOSIG
LWSK - Skoplje, Makedonija
Ažurirano: 18/07/2024 10:50
Vedro
Vedro
 Pravac vetra JJZ
Vetar: JJZ 7 km/h
Temperatura: 35°C
Heat Index: 38°C
Tačka rose: 20°C
Vlažnost: 41%
Pritisak: 1016 hPa
Pregled: Vedro
Vidljivost: greater than 10 km
2024/07/18 08:50 LWSK 180850Z 21004KT 140V300 CAVOK 35/20 Q1016 NOSIG
 
LYPG - Podgorica, Crna Gora
Ažurirano: 18/07/2024 10:30
Vedro
Vedro
 Pravac vetra varies
Vetar: varies 6 km/h
Temperatura: 36°C
Tačka rose: 19°C
Vlažnost: 37%
Pritisak: 1013 hPa
Pregled: Vedro
Vidljivost: greater than 10 km
2024/07/18 08:30 LYPG 180830Z VRB03KT CAVOK 36/19 Q1013 NOSIG
LQSA - Sarajevo, Bosna i Hercegovina
Ažurirano: 18/07/2024 10:30
Few Clouds
Few Clouds
 Pravac vetra varies
Vetar: varies 7 km/h
Temperatura: 27°C
Heat Index: 29°C
Tačka rose: 20°C
Vlažnost: 66%
Pritisak: 1020 hPa
Oblaci: Few Clouds
Vidljivost: 10 km
Cloud details: Few Clouds 1524 m
2024/07/18 08:30 LQSA 180830Z VRB04KT 9999 FEW050 27/20 Q1020 NOSIG
LDOS - Osijek, Hrvatksa
Ažurirano: 18/07/2024 11:00
Vedro
Vedro
 Pravac vetra SZ
Vetar: SZ 15 km/h
Temperatura: 29°C
Heat Index: 30°C
Tačka rose: 19°C
Vlažnost: 55%
Pritisak: 1018 hPa
Pregled: Vedro
Vidljivost: greater than 10 km
2024/07/18 09:00 LDOS 180900Z 31008KT 280V340 CAVOK 29/19 Q1018